Long Prairie, Minnesota
Current Conditions -  °F | °C
As of 12:23 PM on Saturday 25 Oct 2014 (Local Time) from K14Y Reporting Station
Clear Clear  
Wind Chill: 55°   Ceiling: Unl
Heat Index: 55°   Visibility: 10mi
Dew Point: 28°   Wind: 18mph
Humidity: 36%   Direction: 280°W
Pressure: 30.07"   Gusts: 25mph
Location:  45.97°N, 94.87°W
Report Text: K14Y 251723Z AUTO 28016G22KT 10SM CLR 13/M02 A3007 RMK AO2
Loading
Personal Weather Stations






























Interactive Weather Map
Tropical Storm Tracking
New forecast layout! Learn more

10-Day Weather Forecast

Advertisements
Track Severe Weather on mobile